CYRQ - Trois Rivieres

Pirep is a free, collaborative database of all public and private airports located within the United States. All pilots are welcome to contribute, edit, and improve any airport they have local knowledge about, no registration required.
Uploaded photos will be licensed under a CC BY-SA 4.0 license. Please only upload photos you have the rights to use.
Tags
Public
METAR / TAF
Webcam
Food
Edit Tags
Camping
Lodging
Car Rental
Bicycles
Swimming
Golfing
Fishing
Hot Springs
Museum
Flying Clubs
Airpark
Upcoming Events
No upcoming events. Is anything happening here soon?
*
*
*

Where exactly on/near the airport is this event taking place?

Is there a webpage with more information for this event?

Who should be contacted for more information?

What is this event all about?

Repeat every
Description
Last updated: 2024-04-21 01:32:12 EDT
Transient Parking
Fuel Location
Landing & Tie-down Fees
Crew Car Availability
Flying Clubs
WiFi Access
Airport Statistics
Location: Trois Rivieres, CN
Elevation: 199ft
Activation date: Apr 2005
Fuel: None
Runway 05/23: 6,000ft
Access: Open to the public
This airport is privately owned but open to the public.
Current Weather — VFR
  • Weather data is strictly informational and not for flight planning purposes.
  • METAR
    2024-05-30 05:00:00 EDT
    Ceiling Wind Temperature Dewpoint Weather Visbility
    Sky clear 10° @ 3kt 44°F 39°F N/A 9SM
    Raw: CYRQ 300900Z AUTO 01003KT 9SM CLR 07/04 A3001 RMK SLP165
  • TAF
    2024-05-30 04:00:00 EDT – 2024-05-30 10:00:00 EDT
    Ceiling Wind Weather Visbility
    Sky clear 10° @ 5kt N/A 6SM
    Clouds: Scattered @ 22,000ft
    Raw: TAF CYRQ 300740Z 3008/3020 01005KT P6SM SCT220 FM301400 33008KT P6SM SKC RMK FCST BASED ON AUTO OBS. NXT FCST BY 301400Z
  • TAF
    2024-05-30 10:00:00 EDT – 2024-05-30 16:00:00 EDT
    Ceiling Wind Weather Visbility
    Sky clear 330° @ 8kt N/A 6SM
    Clouds: @ ft
    Raw: TAF CYRQ 300740Z 3008/3020 01005KT P6SM SCT220 FM301400 33008KT P6SM SKC RMK FCST BASED ON AUTO OBS. NXT FCST BY 301400Z
Click/tap to add an annotation marker to the map
Direct links to live image URLs will be displayed inline on this page. URLs to separate webpages will be linked to.
URL:
Direct links to live image URLs will be displayed inline on this page. URLs to separate webpages will be linked to.
URL:
Comments
Leave a comment What was your experience like at this airport?